| time (UTC) | temp C | wind direction | speed KPH | gust KPH | rain 1hr cm | rain 24hr cm | rain mn cm | humidity % | barometer mb |
| 20260906123924 | 20 | 89 | 3.2 | 4.8 | 0.00 | 0.00 | 0.00 | 93 | 1018.2 |
| 20260906123452 | 20 | 117 | 0.0 | 3.2 | 0.00 | 0.00 | 0.00 | 93 | 1017.9 |
| 20260906123021 | 20 | 30 | 4.8 | 6.4 | 0.00 | 0.00 | 0.00 | 93 | 1017.9 |
| 20260906122604 | 20 | 44 | 6.4 | 6.4 | 0.00 | 0.00 | 0.00 | 93 | 1017.6 |
| 20260906122149 | 20 | 69 | 6.4 | 6.4 | 0.00 | 0.00 | 0.00 | 93 | 1017.9 |
| 20260906121715 | 20 | 71 | 6.4 | 6.4 | 0.00 | 0.00 | 0.00 | 93 | 1017.9 |
| 20260906121241 | 20 | 66 | 4.8 | 6.4 | 0.00 | 0.00 | 0.00 | 93 | 1017.9 |
| 20260906115853 | 20 | 53 | 3.2 | 4.8 | 0.00 | 0.00 | 0.00 | 94 | 1017.9 |
| 20260906115421 | 20 | 37 | 3.2 | 3.2 | 0.00 | 0.00 | 0.00 | 93 | 1017.6 |
| 20260906114948 | 20 | 49 | 1.6 | 4.8 | 0.00 | 0.00 | 0.00 | 94 | 1017.6 |
| 20260906114532 | 20 | 36 | 4.8 | 9.7 | 0.00 | 0.00 | 0.00 | 93 | 1017.6 |
| 20260906114117 | 20 | 46 | 3.2 | 4.8 | 0.00 | 0.00 | 0.00 | 94 | 1017.6 |
| 20260906113615 | 20 | 74 | 3.2 | 3.2 | 0.00 | 0.00 | 0.00 | 94 | 1017.2 |
| 20260906112655 | 20 | 61 | 1.6 | 3.2 | 0.00 | 0.00 | 0.00 | 94 | 1017.2 |
| 20260906111739 | 20 | 95 | 1.6 | 1.6 | 0.00 | 0.00 | 0.00 | 94 | 1017.2 |
| 20260906111323 | 20 | 62 | 0.0 | 1.6 | 0.00 | 0.00 | 0.00 | 94 | 1016.9 |
| 20260906110906 | 20 | 61 | 3.2 | 3.2 | 0.00 | 0.00 | 0.00 | 94 | 1016.9 |
| 20260906110435 | 20 | 75 | 3.2 | 4.8 | 0.00 | 0.00 | 0.00 | 94 | 1016.9 |
| 20260906110021 | 20 | 340 | 3.2 | 4.8 | 0.00 | 0.00 | 0.00 | 94 | 1016.5 |
| 20260906105120 | 20 | 79 | 3.2 | 4.8 | 0.00 | 0.00 | 0.00 | 95 | 1016.9 |
| 20260906104650 | 20 | 68 | 4.8 | 4.8 | 0.00 | 0.00 | 0.00 | 95 | 1016.5 |
| 20260906104232 | 20 | 45 | 6.4 | 9.7 | 0.00 | 0.00 | 0.00 | 95 | 1016.9 |
| 20260906103815 | 20 | 58 | 4.8 | 4.8 | 0.00 | 0.00 | 0.00 | 95 | 1016.5 |
| 20260906103359 | 20 | 58 | 4.8 | 4.8 | 0.00 | 0.00 | 0.00 | 95 | 1016.5 |
| 20260906102442 | 20 | 62 | 3.2 | 3.2 | 0.00 | 0.00 | 0.00 | 96 | 1016.5 |
| 20260906102010 | 20 | 62 | 3.2 | 3.2 | 0.00 | 0.00 | 0.00 | 96 | 1016.5 |
| 20260906101125 | 20 | 59 | 4.8 | 4.8 | 0.00 | 0.00 | 0.00 | 98 | 1016.2 |
| 20260906100223 | 20 | 86 | 1.6 | 3.2 | 0.00 | 0.00 | 0.00 | 99 | 1016.2 |
| 20260906095751 | 20 | 86 | 1.6 | 3.2 | 0.00 | 0.00 | 0.00 | 99 | 1016.5 |
| 20260906095321 | 20 | 74 | 1.6 | 1.6 | 0.00 | 0.00 | 0.00 | 99 | 1016.5 |
| 20260906094903 | 20 | 76 | 3.2 | 4.8 | 0.00 | 0.00 | 0.00 | 99 | 1016.2 |
| 20260906093946 | 20 | 74 | 0.0 | 0.0 | 0.00 | 0.00 | 0.00 | 99 | 1016.2 |
| 20260906093529 | 20 | 87 | 1.6 | 1.6 | 0.00 | 0.00 | 0.00 | 99 | 1016.2 |
| 20260906093114 | 20 | 91 | 0.0 | 0.0 | 0.00 | 0.00 | 0.00 | 99 | 1016.2 |
| 20260906092656 | 20 | 90 | 0.0 | 0.0 | 0.00 | 0.00 | 0.00 | 99 | 1016.2 |
| 20260906091340 | 20 | 94 | 0.0 | 0.0 | 0.00 | 0.00 | 0.00 | 99 | 1016.2 |
| 20260906090908 | 20 | 94 | 0.0 | 0.0 | 0.00 | 0.00 | 0.00 | 99 | 1016.5 |
| 20260906090002 | 20 | 94 | 0.0 | 0.0 | 0.00 | 0.00 | 0.00 | 99 | 1015.9 |
| 20260906085530 | 20 | 94 | 0.0 | 0.0 | 0.00 | 0.00 | 0.00 | 99 | 1016.2 |
| 20260906085113 | 20 | 94 | 0.0 | 0.0 | 0.00 | 0.00 | 0.00 | 99 | 1016.2 |
| 20260906084642 | 20 | 94 | 0.0 | 0.0 | 0.00 | 0.00 | 0.00 | 99 | 1016.2 |
| 20260906084212 | 20 | 94 | 0.0 | 0.0 | 0.00 | 0.00 | 0.00 | 99 | 1016.2 |
| 20260906083739 | 20 | 94 | 0.0 | 0.0 | 0.00 | 0.00 | 0.00 | 99 | 1016.2 |
| 20260906083323 | 20 | 94 | 0.0 | 0.0 | 0.00 | 0.00 | 0.00 | 99 | 1016.2 |
| 20260906082904 | 20 | 94 | 0.0 | 0.0 | 0.00 | 0.00 | 0.00 | 99 | 1016.2 |
| 20260906082433 | 20 | 94 | 0.0 | 0.0 | 0.00 | 0.00 | 0.00 | 99 | 1016.2 |
| 20260906082002 | 20 | 94 | 0.0 | 0.0 | 0.00 | 0.00 | 0.00 | 99 | 1016.2 |
| 20260906081515 | 20 | 94 | 0.0 | 0.0 | 0.00 | 0.00 | 0.00 | 99 | 1016.2 |
| 20260906081044 | 20 | 94 | 0.0 | 0.0 | 0.00 | 0.00 | 0.00 | 99 | 1016.5 |
| 20260906080614 | 20 | 94 | 0.0 | 0.0 | 0.00 | 0.00 | 0.00 | 99 | 1016.2 |
| 20260906080144 | 20 | 94 | 0.0 | 0.0 | 0.00 | 0.00 | 0.00 | 99 | 1016.2 |
| 20260906075726 | 20 | 94 | 0.0 | 0.0 | 0.00 | 0.00 | 0.00 | 99 | 1015.9 |
| 20260906074837 | 20 | 94 | 0.0 | 0.0 | 0.00 | 0.00 | 0.00 | 99 | 1016.2 |
| 20260906074422 | 20 | 94 | 0.0 | 0.0 | 0.00 | 0.00 | 0.00 | 99 | 1015.9 |
| 20260906074004 | 20 | 94 | 0.0 | 0.0 | 0.00 | 0.00 | 0.00 | 99 | 1015.9 |
| 20260906073533 | 21 | 94 | 0.0 | 0.0 | 0.00 | 0.00 | 0.00 | 99 | 1015.9 |
| 20260906073116 | 21 | 94 | 0.0 | 0.0 | 0.00 | 0.00 | 0.00 | 99 | 1015.9 |
| 20260906072227 | 21 | 94 | 0.0 | 0.0 | 0.00 | 0.00 | 0.00 | 99 | 1015.9 |
| 20260906071756 | 21 | 94 | 0.0 | 0.0 | 0.00 | 0.00 | 0.00 | 99 | 1015.9 |
| 20260906071340 | 21 | 94 | 0.0 | 0.0 | 0.00 | 0.00 | 0.00 | 99 | 1016.2 |
| 20260906070422 | 21 | 94 | 0.0 | 0.0 | 0.00 | 0.00 | 0.00 | 99 | 1016.2 |
| 20260906065518 | 21 | 94 | 0.0 | 0.0 | 0.00 | 0.00 | 0.00 | 99 | 1016.2 |
| 20260906064630 | 21 | 94 | 0.0 | 0.0 | 0.00 | 0.00 | 0.00 | 99 | 1016.2 |
| 20260906063725 | 20 | 94 | 0.0 | 0.0 | 0.00 | 0.00 | 0.00 | 99 | 1016.5 |
| 20260906063307 | 20 | 94 | 0.0 | 0.0 | 0.00 | 0.00 | 0.00 | 99 | 1016.2 |
| 20260906062851 | 20 | 94 | 0.0 | 0.0 | 0.00 | 0.00 | 0.00 | 99 | 1016.5 |
| 20260906062436 | 20 | 94 | 0.0 | 0.0 | 0.00 | 0.00 | 0.00 | 99 | 1016.5 |
| 20260906062002 | 20 | 94 | 0.0 | 0.0 | 0.00 | 0.00 | 0.00 | 99 | 1016.5 |
| 20260906061531 | 20 | 94 | 0.0 | 0.0 | 0.00 | 0.00 | 0.00 | 99 | 1016.5 |
| 20260906061114 | 21 | 94 | 0.0 | 0.0 | 0.00 | 0.00 | 0.00 | 99 | 1016.5 |
| 20260906060657 | 21 | 94 | 0.0 | 0.0 | 0.00 | 0.00 | 0.00 | 99 | 1016.5 |
| 20260906060242 | 21 | 94 | 0.0 | 0.0 | 0.00 | 0.00 | 0.00 | 99 | 1016.5 |
| 20260906055825 | 21 | 94 | 0.0 | 0.0 | 0.00 | 0.00 | 0.00 | 99 | 1016.2 |
| 20260906055410 | 21 | 94 | 0.0 | 0.0 | 0.00 | 0.00 | 0.00 | 99 | 1016.5 |
| 20260906054954 | 21 | 94 | 0.0 | 0.0 | 0.00 | 0.00 | 0.00 | 99 | 1016.2 |
| 20260906054053 | 21 | 94 | 0.0 | 0.0 | 0.00 | 0.00 | 0.00 | 99 | 1015.9 |
| 20260906053639 | 21 | 94 | 0.0 | 0.0 | 0.00 | 0.00 | 0.00 | 99 | 1016.2 |
| 20260906053208 | 21 | 94 | 0.0 | 0.0 | 0.00 | 0.00 | 0.00 | 99 | 1016.2 |
| 20260906052737 | 21 | 94 | 0.0 | 0.0 | 0.00 | 0.00 | 0.00 | 99 | 1016.2 |
| 20260906052306 | 20 | 94 | 0.0 | 0.0 | 0.00 | 0.00 | 0.00 | 99 | 1015.9 |
| 20260906051834 | 20 | 94 | 0.0 | 0.0 | 0.00 | 0.00 | 0.00 | 99 | 1015.9 |
| 20260906050918 | 20 | 94 | 0.0 | 0.0 | 0.00 | 0.00 | 0.00 | 99 | 1015.9 |
| 20260906050503 | 20 | 94 | 0.0 | 0.0 | 0.00 | 0.00 | 0.00 | 99 | 1016.2 |
| 20260906050033 | 21 | 94 | 0.0 | 0.0 | 0.00 | 0.00 | 0.00 | 99 | 1016.2 |
| 20260906045616 | 20 | 94 | 0.0 | 0.0 | 0.00 | 0.00 | 0.00 | 99 | 1016.2 |
| 20260906045159 | 20 | 94 | 0.0 | 0.0 | 0.00 | 0.00 | 0.00 | 99 | 1016.2 |
| 20260906044743 | 21 | 94 | 0.0 | 0.0 | 0.00 | 0.00 | 0.00 | 99 | 1016.2 |
| 20260906044313 | 21 | 94 | 0.0 | 0.0 | 0.00 | 0.00 | 0.00 | 99 | 1015.9 |
| 20260906043840 | 21 | 94 | 0.0 | 0.0 | 0.00 | 0.00 | 0.00 | 99 | 1015.9 |
| 20260906043410 | 21 | 94 | 0.0 | 0.0 | 0.00 | 0.00 | 0.00 | 99 | 1016.2 |
| 20260906042509 | 21 | 94 | 0.0 | 0.0 | 0.00 | 0.00 | 0.00 | 99 | 1016.2 |
| 20260906042054 | 21 | 94 | 0.0 | 0.0 | 0.00 | 0.00 | 0.00 | 99 | 1015.9 |
| 20260906041622 | 21 | 94 | 1.6 | 3.2 | 0.00 | 0.00 | 0.00 | 99 | 1015.9 |
| 20260906041136 | 21 | 79 | 3.2 | 3.2 | 0.00 | 0.00 | 0.00 | 99 | 1015.9 |
| 20260906040719 | 21 | 79 | 3.2 | 1.6 | 0.00 | 0.00 | 0.00 | 99 | 1016.2 |
| 20260906040302 | 21 | 79 | 1.6 | 1.6 | 0.00 | 0.00 | 0.00 | 99 | 1015.9 |
| 20260906035832 | 21 | 72 | 3.2 | 3.2 | 0.00 | 0.00 | 0.94 | 99 | 1016.2 |
| 20260906035415 | 21 | 98 | 0.0 | 1.6 | 0.00 | 0.00 | 0.94 | 98 | 1015.9 |
| 20260906034958 | 21 | 98 | 0.0 | 1.6 | 0.00 | 0.00 | 0.94 | 98 | 1015.9 |
| 20260906034545 | 21 | 98 | 0.0 | 0.0 | 0.00 | 0.00 | 0.94 | 98 | 1015.9 |
| 20260906033610 | 21 | 98 | 0.0 | 0.0 | 0.00 | 0.00 | 0.94 | 98 | 1016.2 |
| 20260906033156 | 21 | 98 | 0.0 | 0.0 | 0.00 | 0.00 | 0.94 | 98 | 1016.2 |
| 20260906032721 | 21 | 98 | 0.0 | 0.0 | 0.00 | 0.00 | 0.94 | 98 | 1016.5 |
| 20260906032250 | 21 | 98 | 0.0 | 0.0 | 0.00 | 0.00 | 0.94 | 98 | 1016.2 |
| 20260906031348 | 21 | 98 | 0.0 | 0.0 | 0.00 | 0.00 | 0.94 | 98 | 1016.2 |
| 20260906030444 | 21 | 98 | 0.0 | 0.0 | 0.00 | 0.00 | 0.94 | 97 | 1016.2 |
| 20260906030027 | 21 | 98 | 0.0 | 0.0 | 0.00 | 0.00 | 0.94 | 97 | 1016.2 |
| 20260906025556 | 21 | 98 | 0.0 | 0.0 | 0.00 | 0.00 | 0.94 | 97 | 1016.5 |
| 20260906025123 | 21 | 98 | 0.0 | 0.0 | 0.00 | 0.00 | 0.94 | 97 | 1016.5 |
| 20260906024650 | 21 | 98 | 0.0 | 0.0 | 0.00 | 0.00 | 0.94 | 97 | 1016.2 |
| 20260906024219 | 22 | 98 | 1.6 | 1.6 | 0.00 | 0.00 | 0.94 | 97 | 1016.2 |
| 20260906023746 | 22 | 98 | 1.6 | 1.6 | 0.00 | 0.00 | 0.94 | 97 | 1016.5 |
| 20260906022844 | 22 | 98 | 0.0 | 0.0 | 0.00 | 0.00 | 0.94 | 96 | 1016.5 |
| 20260906022412 | 22 | 98 | 1.6 | 1.6 | 0.00 | 0.00 | 0.94 | 95 | 1016.5 |
| 20260906021956 | 22 | 98 | 0.0 | 0.0 | 0.00 | 0.00 | 0.94 | 95 | 1016.5 |
| 20260906021526 | 22 | 98 | 1.6 | 1.6 | 0.00 | 0.00 | 0.94 | 95 | 1016.2 |
| 20260906021109 | 22 | 97 | 3.2 | 1.6 | 0.00 | 0.00 | 0.94 | 93 | 1016.2 |
| 20260906020621 | 22 | 97 | 3.2 | 3.2 | 0.00 | 0.00 | 0.94 | 93 | 1016.5 |
| 20260906020150 | 22 | 98 | 0.0 | 0.0 | 0.00 | 0.00 | 0.94 | 93 | 1016.2 |
| 20260906015305 | 22 | 92 | 3.2 | 4.8 | 0.00 | 0.00 | 0.94 | 94 | 1016.2 |
| 20260906014829 | 22 | 91 | 4.8 | 3.2 | 0.00 | 0.00 | 0.94 | 94 | 1015.9 |
| 20260906013941 | 22 | 108 | 3.2 | 3.2 | 0.00 | 0.00 | 0.94 | 95 | 1016.2 |
| 20260906013524 | 22 | 108 | 3.2 | 3.2 | 0.00 | 0.00 | 0.94 | 95 | 1015.9 |
| 20260906013051 | 22 | 72 | 3.2 | 3.2 | 0.00 | 0.00 | 0.94 | 97 | 1015.5 |
| 20260906011731 | 22 | 83 | 1.6 | 3.2 | 0.00 | 0.00 | 0.94 | 97 | 1015.9 |
| 20260906011245 | 22 | 93 | 3.2 | 3.2 | 0.00 | 0.00 | 0.94 | 98 | 1015.5 |
| 20260906010341 | 22 | 62 | 6.4 | 6.4 | 0.00 | 0.00 | 0.94 | 98 | 1015.5 |
| 20260906005925 | 22 | 197 | 0.0 | 0.0 | 0.00 | 0.00 | 0.94 | 98 | 1015.5 |
| 20260906005508 | 23 | 198 | 0.0 | 0.0 | 0.00 | 0.00 | 0.94 | 93 | 1015.2 |
| 20260906005036 | 23 | 198 | 0.0 | 0.0 | 0.00 | 0.00 | 0.94 | 93 | 1015.2 |
| 20260906004132 | 23 | 198 | 0.0 | 0.0 | 0.00 | 0.00 | 0.94 | 93 | 1014.9 |
| 20260906003714 | 23 | 198 | 0.0 | 0.0 | 0.00 | 0.00 | 0.94 | 93 | 1015.2 |
| 20260906003258 | 23 | 198 | 0.0 | 0.0 | 0.00 | 0.00 | 0.94 | 93 | 1015.2 |
| 20260906002811 | 23 | 198 | 0.0 | 0.0 | 0.00 | 0.00 | 0.94 | 93 | 1015.2 |
| 20260906002354 | 23 | 198 | 0.0 | 0.0 | 0.00 | 0.00 | 0.94 | 93 | 1015.2 |
| 20260906001937 | 23 | 198 | 0.0 | 0.0 | 0.00 | 0.00 | 0.94 | 93 | 1015.2 |
| 20260906001521 | 23 | 198 | 0.0 | 0.0 | 0.00 | 0.00 | 0.94 | 93 | 1015.2 |
| 20260906001049 | 23 | 198 | 0.0 | 0.0 | 0.00 | 0.00 | 0.94 | 93 | 1014.9 |
| 20260906000204 | 23 | 198 | 0.0 | 0.0 | 0.00 | 0.00 | 0.94 | 93 | 1014.9 |
| 20260905235744 | 23 | 198 | 0.0 | 0.0 | 0.00 | 0.00 | 0.94 | 93 | 1014.9 |
| 20260905235310 | -17 | 0.0 | 0.0 | 0.00 | 0.00 | 0.94 | 1014.9 | ||
| 20260905234839 | 28 | 204 | 0.0 | 0.0 | 0.00 | 0.00 | 0.94 | 76 | 1014.9 |
| 20260905234423 | 28 | 204 | 0.0 | 0.0 | 0.00 | 0.00 | 0.94 | 76 | 1014.9 |
| 20260905234008 | 28 | 204 | 0.0 | 0.0 | 0.00 | 0.00 | 0.94 | 76 | 1015.2 |
| 20260905233553 | 28 | 204 | 0.0 | 0.0 | 0.00 | 0.00 | 0.94 | 76 | 1014.9 |
| 20260905232654 | 28 | 204 | 0.0 | 0.0 | 0.00 | 0.00 | 0.94 | 76 | 1014.9 |
| 20260905232226 | 28 | 204 | 0.0 | 0.0 | 0.00 | 0.00 | 0.94 | 76 | 1014.9 |
| 20260905231756 | 28 | 204 | 0.0 | 0.0 | 0.00 | 0.00 | 0.94 | 76 | 1014.9 |
| 20260905230911 | 28 | 204 | 0.0 | 0.0 | 0.00 | 0.00 | 0.94 | 76 | 1014.9 |
| 20260905230441 | 28 | 204 | 0.0 | 0.0 | 0.00 | 0.00 | 0.94 | 76 | 1014.9 |
| 20260905230010 | 28 | 204 | 0.0 | 0.0 | 0.00 | 0.00 | 0.94 | 76 | 1014.9 |
| 20260905225055 | 28 | 204 | 0.0 | 0.0 | 0.00 | 0.00 | 0.94 | 76 | 1014.9 |
| 20260905224638 | 28 | 204 | 0.0 | 0.0 | 0.00 | 0.00 | 0.94 | 73 | 1014.9 |
| 20260905224220 | 28 | 204 | 1.6 | 1.6 | 0.00 | 0.00 | 0.94 | 72 | 1014.9 |
| 20260905223802 | 28 | 203 | 3.2 | 1.6 | 0.00 | 0.00 | 0.94 | 68 | 1014.9 |
| 20260905223333 | 29 | 227 | 6.4 | 4.8 | 0.00 | 0.00 | 0.94 | 64 | 1014.9 |
| 20260905222917 | 30 | 212 | 3.2 | 3.2 | 0.00 | 0.00 | 0.94 | 62 | 1014.9 |
| 20260905222503 | 30 | 208 | 1.6 | 1.6 | 0.00 | 0.00 | 0.94 | 61 | 1014.9 |
| 20260905222047 | 30 | 230 | 3.2 | 4.8 | 0.00 | 0.00 | 0.94 | 62 | 1014.9 |
| 20260905221632 | 30 | 227 | 3.2 | 3.2 | 0.00 | 0.00 | 0.94 | 60 | 1015.2 |
| 20260905220730 | -17 | 0.0 | 0.0 | 0.00 | 0.00 | 0.94 | 1014.9 | ||
| 20260905215838 | -17 | 0.0 | 0.0 | 0.00 | 0.00 | 0.94 | 1014.9 | ||
| 20260905214951 | -17 | 0.0 | 0.0 | 0.00 | 0.00 | 0.94 | 1014.9 | ||
| 20260905214521 | -17 | 0.0 | 0.0 | 0.00 | 0.00 | 0.94 | 1014.9 | ||
| 20260905214105 | -17 | 0.0 | 0.0 | 0.00 | 0.00 | 0.94 | 1014.9 | ||
| 20260905213636 | -17 | 0.0 | 0.0 | 0.00 | 0.00 | 0.94 | 1014.9 | ||
| 20260905212252 | 28 | 48 | 3.2 | 3.2 | 0.00 | 0.00 | 0.94 | 65 | 1014.5 |
| 20260905211407 | 28 | 48 | 3.2 | 3.2 | 0.00 | 0.00 | 0.94 | 65 | 1014.9 |
| 20260905210950 | 28 | 48 | 3.2 | 3.2 | 0.00 | 0.00 | 0.94 | 65 | 1014.5 |
| 20260905210536 | 28 | 48 | 3.2 | 3.2 | 0.00 | 0.00 | 0.94 | 65 | 1014.5 |
| 20260905210105 | 28 | 48 | 3.2 | 3.2 | 0.00 | 0.00 | 0.94 | 65 | 1014.5 |
| 20260905205617 | 28 | 48 | 3.2 | 3.2 | 0.00 | 0.00 | 0.94 | 65 | 1014.9 |
| 20260905204719 | 28 | 48 | 3.2 | 3.2 | 0.00 | 0.00 | 0.94 | 65 | 1014.9 |
| 20260905204301 | 28 | 48 | 3.2 | 3.2 | 0.00 | 0.00 | 0.94 | 65 | 1014.9 |
| 20260905203845 | 28 | 48 | 3.2 | 3.2 | 0.00 | 0.00 | 0.94 | 65 | 1014.9 |
| 20260905203430 | 28 | 48 | 3.2 | 3.2 | 0.00 | 0.00 | 0.94 | 65 | 1014.9 |
| 20260905203015 | 28 | 48 | 3.2 | 3.2 | 0.00 | 0.00 | 0.94 | 65 | 1014.9 |
| 20260905202601 | 28 | 48 | 3.2 | 3.2 | 0.00 | 0.00 | 0.94 | 65 | 1014.9 |
| 20260905202146 | -17 | 0.0 | 0.0 | 0.00 | 0.00 | 0.94 | 1015.2 | ||
| 20260905201732 | -17 | 0.0 | 0.0 | 0.00 | 0.00 | 0.94 | 1014.9 | ||
| 20260905201316 | -17 | 0.0 | 0.0 | 0.00 | 0.00 | 0.94 | 1015.2 | ||
| 20260905200846 | -17 | 0.0 | 0.0 | 0.00 | 0.00 | 0.94 | 1015.2 | ||
| 20260905200401 | -17 | 0.0 | 0.0 | 0.00 | 0.00 | 0.94 | 1015.2 | ||
| 20260905195946 | -17 | 0.0 | 0.0 | 0.00 | 0.00 | 0.94 | 1015.2 | ||
| 20260905195516 | -17 | 0.0 | 0.0 | 0.00 | 0.00 | 0.94 | 1015.2 | ||
| 20260905195100 | -17 | 0.0 | 0.0 | 0.00 | 0.00 | 0.94 | 1014.9 | ||
| 20260905194155 | -17 | 0.0 | 0.0 | 0.00 | 0.00 | 0.94 | 1015.5 | ||
| 20260905193708 | -17 | 0.0 | 0.0 | 0.00 | 0.00 | 0.94 | 1015.5 | ||
| 20260905193252 | -17 | 0.0 | 0.0 | 0.00 | 0.00 | 0.94 | 1015.5 | ||
| 20260905191933 | -17 | 0.0 | 0.0 | 0.00 | 0.00 | 0.94 | 1015.5 | ||
| 20260905191049 | -17 | 0.0 | 0.0 | 0.00 | 0.00 | 0.94 | 1015.5 | ||
| 20260905190617 | -17 | 0.0 | 0.0 | 0.00 | 0.00 | 0.94 | 1015.9 | ||
| 20260905185730 | -17 | 0.0 | 0.0 | 0.00 | 0.00 | 0.94 | 1015.9 | ||
| 20260905185314 | -17 | 0.0 | 0.0 | 0.00 | 0.00 | 0.94 | 1015.9 | ||
| 20260905184843 | -17 | 0.0 | 0.0 | 0.00 | 0.00 | 0.94 | 1016.2 | ||
| 20260905184429 | -17 | 0.0 | 0.0 | 0.00 | 0.00 | 0.94 | 1016.2 | ||
| 20260905183958 | -17 | 0.0 | 0.0 | 0.00 | 0.00 | 0.94 | 1016.2 | ||
| 20260905183527 | -17 | 0.0 | 0.0 | 0.00 | 0.00 | 0.94 | 1016.2 | ||
| 20260905183110 | -17 | 0.0 | 0.0 | 0.00 | 0.00 | 0.94 | 1016.2 | ||
| 20260905182652 | 28 | 91 | 1.6 | 1.6 | 0.00 | 0.00 | 0.94 | 63 | 1016.2 |
| 20260905182223 | 28 | 91 | 1.6 | 1.6 | 0.00 | 0.00 | 0.94 | 63 | 1016.2 |
| 20260905181805 | 28 | 91 | 1.6 | 1.6 | 0.00 | 0.00 | 0.94 | 63 | 1016.2 |
| 20260905180914 | 28 | 91 | 1.6 | 1.6 | 0.00 | 0.00 | 0.94 | 63 | 1015.9 |
| 20260905180012 | 28 | 91 | 1.6 | 1.6 | 0.00 | 0.00 | 0.94 | 63 | 1016.2 |
| 20260905175557 | 28 | 91 | 1.6 | 1.6 | 0.00 | 0.00 | 0.94 | 63 | 1016.2 |
| 20260905175143 | 28 | 91 | 1.6 | 1.6 | 0.00 | 0.00 | 0.94 | 63 | 1016.2 |
| 20260905174726 | 28 | 91 | 1.6 | 1.6 | 0.00 | 0.00 | 0.94 | 63 | 1016.2 |
| 20260905174257 | 28 | 91 | 1.6 | 1.6 | 0.00 | 0.00 | 0.94 | 63 | 1016.2 |
| 20260905173842 | 28 | 91 | 1.6 | 1.6 | 0.00 | 0.00 | 0.94 | 63 | 1016.2 |
| 20260905172955 | 28 | 91 | 1.6 | 1.6 | 0.00 | 0.00 | 0.94 | 63 | 1016.5 |
| 20260905172539 | 28 | 211 | 3.2 | 3.2 | 0.00 | 0.00 | 0.94 | 64 | 1016.5 |
| 20260905172109 | 28 | 211 | 3.2 | 3.2 | 0.00 | 0.00 | 0.94 | 64 | 1016.2 |
| 20260905171651 | 28 | 185 | 1.6 | 3.2 | 0.00 | 0.00 | 0.94 | 69 | 1016.5 |
| 20260905171238 | 27 | 247 | 3.2 | 4.8 | 0.00 | 0.00 | 0.94 | 72 | 1016.5 |
| 20260905170805 | 27 | 247 | 3.2 | 4.8 | 0.00 | 0.00 | 0.94 | 72 | 1016.5 |
| 20260905170335 | 27 | 247 | 3.2 | 4.8 | 0.00 | 0.00 | 0.94 | 72 | 1016.5 |
| 20260905165918 | 27 | 247 | 3.2 | 4.8 | 0.00 | 0.00 | 0.94 | 72 | 1016.5 |
| 20260905165501 | 27 | 247 | 3.2 | 4.8 | 0.00 | 0.00 | 0.94 | 72 | 1016.5 |
| 20260905165045 | 27 | 247 | 3.2 | 4.8 | 0.00 | 0.00 | 0.94 | 72 | 1016.9 |
| 20260905164629 | 27 | 247 | 3.2 | 4.8 | 0.00 | 0.00 | 0.94 | 72 | 1016.9 |
| 20260905164214 | 27 | 148 | 1.6 | 1.6 | 0.00 | 0.00 | 0.94 | 75 | 1017.2 |
| 20260905163742 | 27 | 148 | 1.6 | 1.6 | 0.00 | 0.00 | 0.94 | 75 | 1017.6 |
| 20260905163312 | 27 | 196 | 3.2 | 3.2 | 0.00 | 0.00 | 0.94 | 74 | 1017.6 |
| 20260905162840 | 26 | 84 | 4.8 | 4.8 | 0.00 | 0.00 | 0.94 | 70 | 1017.6 |
| 20260905161951 | 26 | 125 | 3.2 | 4.8 | 0.00 | 0.00 | 0.94 | 75 | 1017.2 |
| 20260905161536 | 26 | 125 | 3.2 | 4.8 | 0.00 | 0.00 | 0.94 | 75 | 1017.6 |
| 20260905160649 | 26 | 235 | 4.8 | 4.8 | 0.00 | 0.00 | 0.94 | 73 | 1017.6 |
| 20260905155332 | 25 | 82 | 1.6 | 3.2 | 0.00 | 0.00 | 0.94 | 80 | 1017.6 |
| 20260905154847 | 25 | 82 | 1.6 | 3.2 | 0.00 | 0.00 | 0.94 | 80 | 1017.6 |
| 20260905154417 | 25 | 82 | 1.6 | 3.2 | 0.00 | 0.00 | 0.94 | 80 | 1017.9 |
| 20260905153527 | 25 | 110 | 0.0 | 3.2 | 0.00 | 0.00 | 0.94 | 80 | 1017.6 |
| 20260905153111 | 24 | 164 | 1.6 | 3.2 | 0.00 | 0.00 | 0.94 | 85 | 1017.6 |
| 20260905152653 | 24 | 38 | 6.4 | 9.7 | 0.00 | 0.00 | 0.94 | 82 | 1017.6 |
| 20260905152236 | 23 | 38 | 4.8 | 9.7 | 0.00 | 0.00 | 0.94 | 84 | 1017.9 |
| 20260905151347 | 23 | 53 | 9.7 | 14.5 | 0.00 | 0.00 | 0.94 | 85 | 1017.6 |
| 20260905150931 | 23 | 55 | 8.0 | 11.3 | 0.00 | 0.00 | 0.94 | 86 | 1017.6 |
| 20260905150513 | 23 | 76 | 9.7 | 14.5 | 0.00 | 0.00 | 0.94 | 87 | 1017.6 |
| 20260905150058 | 23 | 71 | 6.4 | 11.3 | 0.00 | 0.00 | 0.94 | 90 | 1017.6 |
| 20260905145641 | 23 | 64 | 6.4 | 9.7 | 0.00 | 0.00 | 0.94 | 90 | 1017.6 |
| 20260905145225 | 23 | 22 | 9.7 | 11.3 | 0.00 | 0.00 | 0.94 | 90 | 1017.9 |
| 20260905144808 | 23 | 43 | 4.8 | 6.4 | 0.00 | 0.00 | 0.94 | 92 | 1018.2 |
| 20260905144352 | 23 | 60 | 4.8 | 11.3 | 0.00 | 0.00 | 0.94 | 91 | 1017.9 |
| 20260905143935 | 22 | 100 | 1.6 | 3.2 | 0.00 | 0.00 | 0.94 | 93 | 1018.2 |
| 20260905143504 | 22 | 347 | 4.8 | 6.4 | 0.00 | 0.00 | 0.94 | 93 | 1017.9 |
| 20260905143032 | 22 | 38 | 6.4 | 6.4 | 0.00 | 0.00 | 0.94 | 94 | 1017.9 |
| 20260905142615 | 22 | 357 | 3.2 | 11.3 | 0.00 | 0.00 | 0.94 | 94 | 1017.6 |
| 20260905142159 | 22 | 325 | 6.4 | 12.9 | 0.00 | 0.00 | 0.94 | 96 | 1017.2 |
| 20260905141740 | 22 | 139 | 1.6 | 1.6 | 0.00 | 0.00 | 0.94 | 98 | 1017.2 |
| 20260905141325 | 22 | 347 | 9.7 | 9.7 | 0.00 | 0.00 | 0.94 | 98 | 1016.5 |
| 20260905140838 | 21 | 173 | 3.2 | 4.8 | 0.00 | 0.00 | 0.94 | 98 | 1015.5 |
| 20260905140422 | 22 | 114 | 4.8 | 6.4 | 0.00 | 0.00 | 0.94 | 98 | 1014.5 |
| 20260905140005 | 22 | 318 | 1.6 | 6.4 | 0.00 | 0.00 | 0.94 | 99 | 1014.9 |
| 20260905135547 | 21 | 207 | 1.6 | 1.6 | 0.00 | 0.00 | 0.94 | 99 | 1015.9 |
| 20260905135130 | 21 | 207 | 0.0 | 0.0 | 0.00 | 0.00 | 0.94 | 99 | 1016.2 |
| 20260905134658 | 21 | 202 | 3.2 | 3.2 | 0.00 | 0.00 | 0.94 | 99 | 1016.5 |
| 20260905134242 | 21 | 202 | 1.6 | 3.2 | 0.00 | 0.00 | 0.94 | 99 | 1016.5 |
| 20260905132919 | 21 | 197 | 3.2 | 4.8 | 0.00 | 0.00 | 0.94 | 99 | 1016.2 |
| 20260905132448 | 21 | 204 | 3.2 | 3.2 | 0.00 | 0.00 | 0.94 | 99 | 1016.5 |
| 20260905132017 | 21 | 112 | 0.0 | 0.0 | 0.00 | 0.00 | 0.94 | 99 | 1016.5 |
| 20260905131546 | 21 | 112 | 0.0 | 1.6 | 0.00 | 0.00 | 0.91 | 99 | 1016.5 |
| 20260905131129 | 21 | 112 | 0.0 | 0.0 | 0.00 | 0.00 | 0.91 | 99 | 1016.5 |
| 20260905130713 | 21 | 111 | 0.0 | 1.6 | 0.00 | 0.00 | 0.91 | 99 | 1016.9 |
| 20260905125822 | 21 | 110 | 0.0 | 0.0 | 0.00 | 0.00 | 0.89 | 98 | 1016.9 |
| 20260905125404 | 21 | 109 | 3.2 | 3.2 | 0.00 | 0.00 | 0.86 | 98 | 1017.2 |
| 20260905124933 | 21 | 117 | 1.6 | 1.6 | 0.00 | 0.00 | 0.84 | 98 | 1017.2 |